KTKI Airport (Mckinney National) Information

FAA: TKI - ICAO: KTKI

KTKI Airport Location

State Texas
County Collin
City Dallas
KTKI Airport is 32 miles north of Dallas, TX.
Latitude 33-10-37.4350N
Longitude 096-35-19.5600W
Elevation 588ft

KTKI Airport METARs

METAR KTKI 071953Z 36006KT 3SM BR BKN005 BKN020 OVC024 19/19 A3014 RMK AO2 SLP208 T01940189
Altimeter 30.14"
Temperature 19.4°C (66.9°F)
Wind 360° at 6KT
Clouds broken at 500ft broken at 2,000ft overcast at 2,400ft
Visibility 3.0mi
Time observed: 2022-12-07T19:53:00Z

KTKI Airport Details

Status Operational
Activation N/A
Ownership Public
Usage Public
Chart DALLAS-FT WORTH
ATC on-site Yes
Beacon schedule sunset-sunrise
Beacon color clear green

KTKI Airport Contacts

Owner CITY OF MC KINNEY
Owner address PO BOX 517, MC KINNEY, TX 75070
Owner phone 972-562-4214
Manager DELMER M MILLER
Manager address PO BOX 988, DALHART, TX 79022
Manager phone 806-384-2211

KTKI Airport (Mckinney National) Radio Frequencies

KTKI (Airport) Radio Frequencies

UNICOM 122.95
Common traffic advisory frequency (CTAF) 118.825